sensor_id;sensor_type;location;lat;lon;timestamp;P1;durP1;ratioP1;P2;durP2;ratioP2
14883;SDS011;7534;50.762;7.000;2022-10-16T00:01:12;1.97;;;1.33;;
14883;SDS011;7534;50.762;7.000;2022-10-16T00:03:41;3.10;;;1.40;;
14883;SDS011;7534;50.762;7.000;2022-10-16T00:06:08;2.03;;;1.60;;
14883;SDS011;7534;50.762;7.000;2022-10-16T00:08:36;1.50;;;1.40;;
14883;SDS011;7534;50.762;7.000;2022-10-16T00:11:07;2.00;;;1.40;;
14883;SDS011;7534;50.762;7.000;2022-10-16T00:13:37;1.40;;;1.30;;
14883;SDS011;7534;50.762;7.000;2022-10-16T00:16:05;2.67;;;1.40;;
14883;SDS011;7534;50.762;7.000;2022-10-16T00:18:33;2.33;;;1.57;;
14883;SDS011;7534;50.762;7.000;2022-10-16T00:21:06;3.37;;;1.40;;
14883;SDS011;7534;50.762;7.000;2022-10-16T00:23:39;2.43;;;1.50;;
14883;SDS011;7534;50.762;7.000;2022-10-16T00:26:06;1.40;;;1.30;;
14883;SDS011;7534;50.762;7.000;2022-10-16T00:28:36;1.40;;;1.30;;
14883;SDS011;7534;50.762;7.000;2022-10-16T00:31:06;2.50;;;1.53;;
14883;SDS011;7534;50.762;7.000;2022-10-16T00:33:37;1.90;;;1.20;;
14883;SDS011;7534;50.762;7.000;2022-10-16T00:36:05;1.50;;;1.40;;
14883;SDS011;7534;50.762;7.000;2022-10-16T00:38:34;2.30;;;1.50;;
14883;SDS011;7534;50.762;7.000;2022-10-16T00:41:00;1.57;;;1.47;;
14883;SDS011;7534;50.762;7.000;2022-10-16T00:43:45;2.50;;;1.83;;
14883;SDS011;7534;50.762;7.000;2022-10-16T00:46:25;1.40;;;1.30;;
14883;SDS011;7534;50.762;7.000;2022-10-16T00:49:03;1.33;;;1.20;;
14883;SDS011;7534;50.762;7.000;2022-10-16T00:51:46;1.63;;;1.30;;
14883;SDS011;7534;50.762;7.000;2022-10-16T00:56:47;1.77;;;1.67;;
14883;SDS011;7534;50.762;7.000;2022-10-16T00:59:19;1.80;;;1.50;;
14883;SDS011;7534;50.762;7.000;2022-10-16T01:01:50;2.17;;;1.50;;
14883;SDS011;7534;50.762;7.000;2022-10-16T01:04:17;1.60;;;1.50;;
14883;SDS011;7534;50.762;7.000;2022-10-16T01:15:32;3.53;;;1.90;;
14883;SDS011;7534;50.762;7.000;2022-10-16T01:18:13;2.40;;;1.90;;
14883;SDS011;7534;50.762;7.000;2022-10-16T01:26:20;2.10;;;1.90;;
14883;SDS011;7534;50.762;7.000;2022-10-16T01:29:07;2.87;;;1.70;;
14883;SDS011;7534;50.762;7.000;2022-10-16T01:31:42;2.47;;;1.70;;
14883;SDS011;7534;50.762;7.000;2022-10-16T01:34:16;2.03;;;1.60;;
14883;SDS011;7534;50.762;7.000;2022-10-16T01:36:51;1.77;;;1.60;;
14883;SDS011;7534;50.762;7.000;2022-10-16T01:39:27;1.80;;;1.70;;
14883;SDS011;7534;50.762;7.000;2022-10-16T01:42:00;1.60;;;1.50;;
14883;SDS011;7534;50.762;7.000;2022-10-16T01:44:36;3.30;;;1.60;;
14883;SDS011;7534;50.762;7.000;2022-10-16T01:47:05;1.70;;;1.60;;
14883;SDS011;7534;50.762;7.000;2022-10-16T01:49:35;1.50;;;1.40;;
14883;SDS011;7534;50.762;7.000;2022-10-16T01:52:07;1.63;;;1.20;;
14883;SDS011;7534;50.762;7.000;2022-10-16T01:54:40;1.57;;;1.47;;
14883;SDS011;7534;50.762;7.000;2022-10-16T01:57:12;1.63;;;1.30;;
14883;SDS011;7534;50.762;7.000;2022-10-16T01:59:42;3.40;;;1.53;;
14883;SDS011;7534;50.762;7.000;2022-10-16T02:02:15;1.40;;;1.30;;
14883;SDS011;7534;50.762;7.000;2022-10-16T02:04:58;1.40;;;1.27;;
14883;SDS011;7534;50.762;7.000;2022-10-16T02:07:35;1.30;;;1.20;;
14883;SDS011;7534;50.762;7.000;2022-10-16T02:10:02;1.40;;;1.17;;
14883;SDS011;7534;50.762;7.000;2022-10-16T02:12:32;1.40;;;1.30;;
14883;SDS011;7534;50.762;7.000;2022-10-16T02:15:04;1.20;;;1.10;;
14883;SDS011;7534;50.762;7.000;2022-10-16T02:17:32;1.20;;;1.10;;
14883;SDS011;7534;50.762;7.000;2022-10-16T02:19:57;1.07;;;1.07;;
14883;SDS011;7534;50.762;7.000;2022-10-16T02:22:35;3.47;;;1.30;;
14883;SDS011;7534;50.762;7.000;2022-10-16T02:25:18;1.43;;;1.13;;
14883;SDS011;7534;50.762;7.000;2022-10-16T02:30:50;1.20;;;1.10;;
14883;SDS011;7534;50.762;7.000;2022-10-16T02:33:24;1.57;;;1.20;;
14883;SDS011;7534;50.762;7.000;2022-10-16T02:35:53;1.40;;;1.30;;
14883;SDS011;7534;50.762;7.000;2022-10-16T02:38:21;1.73;;;1.20;;
14883;SDS011;7534;50.762;7.000;2022-10-16T02:40:50;4.00;;;1.20;;
14883;SDS011;7534;50.762;7.000;2022-10-16T02:43:17;1.77;;;1.20;;
14883;SDS011;7534;50.762;7.000;2022-10-16T02:45:43;1.23;;;1.13;;
14883;SDS011;7534;50.762;7.000;2022-10-16T02:48:09;1.13;;;1.13;;
14883;SDS011;7534;50.762;7.000;2022-10-16T02:50:34;1.53;;;1.20;;
14883;SDS011;7534;50.762;7.000;2022-10-16T02:53:00;1.23;;;1.20;;
14883;SDS011;7534;50.762;7.000;2022-10-16T02:55:26;1.63;;;1.10;;
14883;SDS011;7534;50.762;7.000;2022-10-16T02:57:53;1.30;;;1.20;;
14883;SDS011;7534;50.762;7.000;2022-10-16T03:00:19;1.43;;;1.20;;
14883;SDS011;7534;50.762;7.000;2022-10-16T03:02:45;1.17;;;1.07;;
14883;SDS011;7534;50.762;7.000;2022-10-16T03:05:12;1.53;;;1.30;;
14883;SDS011;7534;50.762;7.000;2022-10-16T03:07:38;1.40;;;1.23;;
14883;SDS011;7534;50.762;7.000;2022-10-16T03:10:04;2.00;;;1.27;;
14883;SDS011;7534;50.762;7.000;2022-10-16T03:12:30;1.37;;;1.23;;
14883;SDS011;7534;50.762;7.000;2022-10-16T03:14:56;1.27;;;1.10;;
14883;SDS011;7534;50.762;7.000;2022-10-16T03:17:23;1.87;;;1.30;;
14883;SDS011;7534;50.762;7.000;2022-10-16T03:19:49;2.33;;;1.10;;
14883;SDS011;7534;50.762;7.000;2022-10-16T03:22:15;1.17;;;1.17;;
14883;SDS011;7534;50.762;7.000;2022-10-16T03:24:41;1.93;;;1.20;;
14883;SDS011;7534;50.762;7.000;2022-10-16T03:27:07;1.30;;;1.20;;
14883;SDS011;7534;50.762;7.000;2022-10-16T03:29:33;1.10;;;1.10;;
14883;SDS011;7534;50.762;7.000;2022-10-16T03:31:59;1.87;;;1.10;;
14883;SDS011;7534;50.762;7.000;2022-10-16T03:34:25;1.20;;;1.10;;
14883;SDS011;7534;50.762;7.000;2022-10-16T03:36:53;3.10;;;1.10;;
14883;SDS011;7534;50.762;7.000;2022-10-16T03:39:19;1.30;;;1.20;;
14883;SDS011;7534;50.762;7.000;2022-10-16T03:41:45;2.63;;;1.23;;
14883;SDS011;7534;50.762;7.000;2022-10-16T03:44:14;1.70;;;1.20;;
14883;SDS011;7534;50.762;7.000;2022-10-16T03:46:39;2.37;;;1.13;;
14883;SDS011;7534;50.762;7.000;2022-10-16T03:49:05;1.00;;;1.00;;
14883;SDS011;7534;50.762;7.000;2022-10-16T03:51:31;2.73;;;1.30;;
14883;SDS011;7534;50.762;7.000;2022-10-16T03:53:57;1.13;;;1.13;;
14883;SDS011;7534;50.762;7.000;2022-10-16T03:56:23;1.07;;;1.07;;
14883;SDS011;7534;50.762;7.000;2022-10-16T03:58:48;2.00;;;1.20;;
14883;SDS011;7534;50.762;7.000;2022-10-16T04:01:14;1.40;;;1.30;;
14883;SDS011;7534;50.762;7.000;2022-10-16T04:03:40;1.73;;;1.10;;
14883;SDS011;7534;50.762;7.000;2022-10-16T04:06:05;2.27;;;1.13;;
14883;SDS011;7534;50.762;7.000;2022-10-16T04:08:31;1.13;;;1.10;;
14883;SDS011;7534;50.762;7.000;2022-10-16T04:10:59;1.27;;;1.10;;
14883;SDS011;7534;50.762;7.000;2022-10-16T04:13:26;1.20;;;1.10;;
14883;SDS011;7534;50.762;7.000;2022-10-16T04:15:52;2.93;;;1.20;;
14883;SDS011;7534;50.762;7.000;2022-10-16T04:18:17;1.40;;;1.10;;
14883;SDS011;7534;50.762;7.000;2022-10-16T04:20:43;1.10;;;1.10;;
14883;SDS011;7534;50.762;7.000;2022-10-16T04:23:09;2.30;;;1.30;;
14883;SDS011;7534;50.762;7.000;2022-10-16T04:25:35;2.87;;;1.10;;
14883;SDS011;7534;50.762;7.000;2022-10-16T04:28:00;1.33;;;1.27;;
14883;SDS011;7534;50.762;7.000;2022-10-16T04:30:26;1.30;;;1.20;;
14883;SDS011;7534;50.762;7.000;2022-10-16T04:32:52;4.20;;;1.40;;
14883;SDS011;7534;50.762;7.000;2022-10-16T04:35:18;2.30;;;1.10;;
14883;SDS011;7534;50.762;7.000;2022-10-16T04:37:45;1.53;;;1.30;;
14883;SDS011;7534;50.762;7.000;2022-10-16T04:40:12;1.63;;;1.30;;
14883;SDS011;7534;50.762;7.000;2022-10-16T04:42:38;2.70;;;1.07;;
14883;SDS011;7534;50.762;7.000;2022-10-16T04:45:04;2.00;;;1.13;;
14883;SDS011;7534;50.762;7.000;2022-10-16T04:47:31;1.20;;;1.20;;
14883;SDS011;7534;50.762;7.000;2022-10-16T04:49:57;1.10;;;1.10;;
14883;SDS011;7534;50.762;7.000;2022-10-16T04:52:24;2.03;;;1.40;;
14883;SDS011;7534;50.762;7.000;2022-10-16T04:54:52;3.07;;;1.47;;
14883;SDS011;7534;50.762;7.000;2022-10-16T04:57:18;1.40;;;1.30;;
14883;SDS011;7534;50.762;7.000;2022-10-16T04:59:45;2.20;;;1.70;;
14883;SDS011;7534;50.762;7.000;2022-10-16T05:02:11;1.70;;;1.60;;
14883;SDS011;7534;50.762;7.000;2022-10-16T05:04:37;3.07;;;1.57;;
14883;SDS011;7534;50.762;7.000;2022-10-16T05:07:02;1.43;;;1.33;;
14883;SDS011;7534;50.762;7.000;2022-10-16T05:09:28;1.50;;;1.40;;
14883;SDS011;7534;50.762;7.000;2022-10-16T05:11:54;1.77;;;1.50;;
14883;SDS011;7534;50.762;7.000;2022-10-16T05:14:19;1.30;;;1.20;;
14883;SDS011;7534;50.762;7.000;2022-10-16T05:16:45;1.43;;;1.33;;
14883;SDS011;7534;50.762;7.000;2022-10-16T05:19:12;2.53;;;1.67;;
14883;SDS011;7534;50.762;7.000;2022-10-16T05:21:39;1.70;;;1.60;;
14883;SDS011;7534;50.762;7.000;2022-10-16T05:24:06;1.60;;;1.40;;
14883;SDS011;7534;50.762;7.000;2022-10-16T05:26:32;2.77;;;1.50;;
14883;SDS011;7534;50.762;7.000;2022-10-16T05:28:57;2.83;;;1.97;;
14883;SDS011;7534;50.762;7.000;2022-10-16T05:31:23;2.33;;;1.40;;
14883;SDS011;7534;50.762;7.000;2022-10-16T05:33:49;1.50;;;1.40;;
14883;SDS011;7534;50.762;7.000;2022-10-16T05:36:15;2.00;;;1.30;;
14883;SDS011;7534;50.762;7.000;2022-10-16T05:38:43;2.27;;;1.40;;
14883;SDS011;7534;50.762;7.000;2022-10-16T05:41:09;2.10;;;1.40;;
14883;SDS011;7534;50.762;7.000;2022-10-16T05:43:35;1.90;;;1.70;;
14883;SDS011;7534;50.762;7.000;2022-10-16T05:46:01;1.73;;;1.50;;
14883;SDS011;7534;50.762;7.000;2022-10-16T05:48:30;1.73;;;1.53;;
14883;SDS011;7534;50.762;7.000;2022-10-16T05:51:04;3.10;;;1.53;;
14883;SDS011;7534;50.762;7.000;2022-10-16T05:53:33;1.60;;;1.50;;
14883;SDS011;7534;50.762;7.000;2022-10-16T05:56:04;1.77;;;1.67;;
14883;SDS011;7534;50.762;7.000;2022-10-16T05:58:32;2.33;;;1.70;;
14883;SDS011;7534;50.762;7.000;2022-10-16T06:01:03;1.90;;;1.53;;
14883;SDS011;7534;50.762;7.000;2022-10-16T06:03:33;1.80;;;1.70;;
14883;SDS011;7534;50.762;7.000;2022-10-16T06:05:59;2.57;;;1.80;;
14883;SDS011;7534;50.762;7.000;2022-10-16T06:08:45;2.03;;;1.70;;
14883;SDS011;7534;50.762;7.000;2022-10-16T06:11:15;1.90;;;1.80;;
14883;SDS011;7534;50.762;7.000;2022-10-16T06:13:44;5.03;;;1.90;;
14883;SDS011;7534;50.762;7.000;2022-10-16T06:16:13;3.37;;;1.90;;
14883;SDS011;7534;50.762;7.000;2022-10-16T06:18:39;3.50;;;2.10;;
14883;SDS011;7534;50.762;7.000;2022-10-16T06:21:12;2.73;;;1.83;;
14883;SDS011;7534;50.762;7.000;2022-10-16T06:23:42;2.50;;;2.30;;
14883;SDS011;7534;50.762;7.000;2022-10-16T06:26:11;2.33;;;2.10;;
14883;SDS011;7534;50.762;7.000;2022-10-16T06:28:40;3.00;;;1.97;;
14883;SDS011;7534;50.762;7.000;2022-10-16T06:31:08;2.77;;;2.30;;
14883;SDS011;7534;50.762;7.000;2022-10-16T06:33:37;4.00;;;2.03;;
14883;SDS011;7534;50.762;7.000;2022-10-16T06:36:11;2.80;;;2.30;;
14883;SDS011;7534;50.762;7.000;2022-10-16T06:38:40;2.10;;;2.00;;
14883;SDS011;7534;50.762;7.000;2022-10-16T06:41:08;2.17;;;1.90;;
14883;SDS011;7534;50.762;7.000;2022-10-16T06:43:41;3.10;;;2.10;;
14883;SDS011;7534;50.762;7.000;2022-10-16T06:46:07;4.10;;;3.70;;
14883;SDS011;7534;50.762;7.000;2022-10-16T06:48:37;3.70;;;3.40;;
14883;SDS011;7534;50.762;7.000;2022-10-16T06:51:04;3.50;;;3.20;;
14883;SDS011;7534;50.762;7.000;2022-10-16T06:53:38;2.60;;;2.40;;
14883;SDS011;7534;50.762;7.000;2022-10-16T06:56:13;2.60;;;2.40;;
14883;SDS011;7534;50.762;7.000;2022-10-16T06:58:48;3.93;;;2.10;;
14883;SDS011;7534;50.762;7.000;2022-10-16T07:01:16;3.37;;;2.17;;
14883;SDS011;7534;50.762;7.000;2022-10-16T07:03:44;2.87;;;2.50;;
14883;SDS011;7534;50.762;7.000;2022-10-16T07:06:12;4.20;;;2.37;;
14883;SDS011;7534;50.762;7.000;2022-10-16T07:08:42;3.10;;;1.97;;
14883;SDS011;7534;50.762;7.000;2022-10-16T07:11:19;2.27;;;1.73;;
14883;SDS011;7534;50.762;7.000;2022-10-16T07:13:47;2.40;;;1.70;;
14883;SDS011;7534;50.762;7.000;2022-10-16T07:16:15;2.10;;;1.57;;
14883;SDS011;7534;50.762;7.000;2022-10-16T07:18:43;2.53;;;1.70;;
14883;SDS011;7534;50.762;7.000;2022-10-16T07:23:44;1.83;;;1.60;;
14883;SDS011;7534;50.762;7.000;2022-10-16T07:26:10;2.17;;;1.98;;
14883;SDS011;7534;50.762;7.000;2022-10-16T07:28:37;2.27;;;2.07;;
14883;SDS011;7534;50.762;7.000;2022-10-16T07:31:05;4.57;;;3.30;;
14883;SDS011;7534;50.762;7.000;2022-10-16T07:33:38;3.53;;;2.70;;
14883;SDS011;7534;50.762;7.000;2022-10-16T07:36:08;4.47;;;2.30;;
14883;SDS011;7534;50.762;7.000;2022-10-16T07:38:34;2.77;;;2.37;;
14883;SDS011;7534;50.762;7.000;2022-10-16T07:41:04;4.57;;;2.20;;
14883;SDS011;7534;50.762;7.000;2022-10-16T07:43:36;4.43;;;2.50;;
14883;SDS011;7534;50.762;7.000;2022-10-16T07:46:03;3.23;;;2.93;;
14883;SDS011;7534;50.762;7.000;2022-10-16T07:48:29;3.37;;;2.20;;
14883;SDS011;7534;50.762;7.000;2022-10-16T07:50:58;4.93;;;2.30;;
14883;SDS011;7534;50.762;7.000;2022-10-16T07:53:26;2.80;;;2.20;;
14883;SDS011;7534;50.762;7.000;2022-10-16T07:55:54;3.00;;;2.70;;
14883;SDS011;7534;50.762;7.000;2022-10-16T07:58:27;3.97;;;3.20;;
14883;SDS011;7534;50.762;7.000;2022-10-16T08:00:54;3.57;;;2.20;;
14883;SDS011;7534;50.762;7.000;2022-10-16T08:03:21;2.50;;;2.30;;
14883;SDS011;7534;50.762;7.000;2022-10-16T08:05:47;2.55;;;2.15;;
14883;SDS011;7534;50.762;7.000;2022-10-16T08:08:13;2.70;;;2.50;;
14883;SDS011;7534;50.762;7.000;2022-10-16T08:10:40;2.50;;;2.30;;
14883;SDS011;7534;50.762;7.000;2022-10-16T08:13:06;3.13;;;2.60;;
14883;SDS011;7534;50.762;7.000;2022-10-16T08:15:32;2.77;;;2.57;;
14883;SDS011;7534;50.762;7.000;2022-10-16T08:17:58;2.97;;;2.70;;
14883;SDS011;7534;50.762;7.000;2022-10-16T08:20:27;2.80;;;2.60;;
14883;SDS011;7534;50.762;7.000;2022-10-16T08:22:55;3.15;;;2.67;;
14883;SDS011;7534;50.762;7.000;2022-10-16T08:25:21;2.75;;;2.55;;
14883;SDS011;7534;50.762;7.000;2022-10-16T08:27:48;2.55;;;2.35;;
14883;SDS011;7534;50.762;7.000;2022-10-16T08:30:15;3.13;;;2.45;;
14883;SDS011;7534;50.762;7.000;2022-10-16T08:32:44;4.47;;;3.65;;
14883;SDS011;7534;50.762;7.000;2022-10-16T08:35:10;4.18;;;2.60;;
14883;SDS011;7534;50.762;7.000;2022-10-16T08:37:38;4.25;;;2.60;;
14883;SDS011;7534;50.762;7.000;2022-10-16T08:40:05;3.22;;;2.25;;
14883;SDS011;7534;50.762;7.000;2022-10-16T08:48:41;2.40;;;1.50;;
14883;SDS011;7534;50.762;7.000;2022-10-16T08:51:21;1.77;;;1.50;;
14883;SDS011;7534;50.762;7.000;2022-10-16T08:53:55;1.50;;;1.40;;
14883;SDS011;7534;50.762;7.000;2022-10-16T08:56:24;1.65;;;1.50;;
14883;SDS011;7534;50.762;7.000;2022-10-16T08:58:51;1.65;;;1.30;;
14883;SDS011;7534;50.762;7.000;2022-10-16T09:01:19;1.60;;;1.50;;
14883;SDS011;7534;50.762;7.000;2022-10-16T09:15:39;3.97;;;1.30;;
14883;SDS011;7534;50.762;7.000;2022-10-16T09:18:18;0.90;;;0.90;;
14883;SDS011;7534;50.762;7.000;2022-10-16T09:21:21;1.58;;;1.00;;
14883;SDS011;7534;50.762;7.000;2022-10-16T09:23:59;0.80;;;0.80;;
14883;SDS011;7534;50.762;7.000;2022-10-16T09:26:36;0.82;;;0.82;;
14883;SDS011;7534;50.762;7.000;2022-10-16T09:29:02;1.05;;;1.02;;
14883;SDS011;7534;50.762;7.000;2022-10-16T09:31:28;1.75;;;0.98;;
14883;SDS011;7534;50.762;7.000;2022-10-16T09:34:00;1.20;;;0.90;;
14883;SDS011;7534;50.762;7.000;2022-10-16T09:36:35;1.65;;;1.00;;
14883;SDS011;7534;50.762;7.000;2022-10-16T09:39:09;0.90;;;0.90;;
14883;SDS011;7534;50.762;7.000;2022-10-16T09:41:40;1.00;;;0.90;;
14883;SDS011;7534;50.762;7.000;2022-10-16T09:44:28;1.15;;;1.10;;
14883;SDS011;7534;50.762;7.000;2022-10-16T09:47:04;0.80;;;0.80;;
14883;SDS011;7534;50.762;7.000;2022-10-16T09:49:56;0.95;;;0.95;;
14883;SDS011;7534;50.762;7.000;2022-10-16T09:52:44;1.58;;;0.95;;
14883;SDS011;7534;50.762;7.000;2022-10-16T09:55:13;1.55;;;1.08;;
14883;SDS011;7534;50.762;7.000;2022-10-16T09:57:49;1.80;;;0.85;;
14883;SDS011;7534;50.762;7.000;2022-10-16T10:00:19;2.75;;;0.77;;
14883;SDS011;7534;50.762;7.000;2022-10-16T10:02:48;1.60;;;1.00;;
14883;SDS011;7534;50.762;7.000;2022-10-16T10:05:19;1.20;;;0.82;;
14883;SDS011;7534;50.762;7.000;2022-10-16T10:07:58;2.63;;;1.35;;
14883;SDS011;7534;50.762;7.000;2022-10-16T10:10:34;1.55;;;0.75;;
14883;SDS011;7534;50.762;7.000;2022-10-16T10:13:20;1.80;;;1.10;;
14883;SDS011;7534;50.762;7.000;2022-10-16T10:15:50;1.42;;;0.90;;
14883;SDS011;7534;50.762;7.000;2022-10-16T10:18:20;2.85;;;0.90;;
14883;SDS011;7534;50.762;7.000;2022-10-16T10:21:02;1.65;;;0.70;;
14883;SDS011;7534;50.762;7.000;2022-10-16T10:23:30;1.10;;;0.80;;
14883;SDS011;7534;50.762;7.000;2022-10-16T10:43:15;0.80;;;0.77;;
14883;SDS011;7534;50.762;7.000;2022-10-16T10:46:32;1.10;;;0.88;;
14883;SDS011;7534;50.762;7.000;2022-10-16T11:01:16;1.52;;;0.90;;
14883;SDS011;7534;50.762;7.000;2022-10-16T11:07:25;0.88;;;0.80;;
14883;SDS011;7534;50.762;7.000;2022-10-16T11:10:09;1.52;;;1.20;;
14883;SDS011;7534;50.762;7.000;2022-10-16T11:12:46;2.00;;;1.77;;
14883;SDS011;7534;50.762;7.000;2022-10-16T11:15:32;1.20;;;1.00;;
14883;SDS011;7534;50.762;7.000;2022-10-16T11:18:06;1.50;;;1.10;;
14883;SDS011;7534;50.762;7.000;2022-10-16T11:20:45;0.90;;;0.90;;
14883;SDS011;7534;50.762;7.000;2022-10-16T11:25:57;0.80;;;0.80;;
14883;SDS011;7534;50.762;7.000;2022-10-16T11:28:32;0.60;;;0.60;;
14883;SDS011;7534;50.762;7.000;2022-10-16T11:33:49;1.50;;;0.82;;
14883;SDS011;7534;50.762;7.000;2022-10-16T11:39:26;2.15;;;0.90;;
14883;SDS011;7534;50.762;7.000;2022-10-16T11:41:57;2.10;;;0.82;;
14883;SDS011;7534;50.762;7.000;2022-10-16T11:47:48;6.78;;;1.00;;
14883;SDS011;7534;50.762;7.000;2022-10-16T11:55:49;1.38;;;0.80;;
14883;SDS011;7534;50.762;7.000;2022-10-16T12:08:58;0.80;;;0.77;;
14883;SDS011;7534;50.762;7.000;2022-10-16T12:13:51;1.75;;;1.08;;
14883;SDS011;7534;50.762;7.000;2022-10-16T12:16:59;1.05;;;0.95;;
14883;SDS011;7534;50.762;7.000;2022-10-16T12:19:29;0.82;;;0.80;;
14883;SDS011;7534;50.762;7.000;2022-10-16T12:21:58;0.98;;;0.88;;
14883;SDS011;7534;50.762;7.000;2022-10-16T12:24:44;1.48;;;0.90;;
14883;SDS011;7534;50.762;7.000;2022-10-16T12:27:27;1.45;;;0.77;;
14883;SDS011;7534;50.762;7.000;2022-10-16T12:29:59;0.70;;;0.70;;
14883;SDS011;7534;50.762;7.000;2022-10-16T12:34:59;0.75;;;0.75;;
14883;SDS011;7534;50.762;7.000;2022-10-16T12:37:37;1.70;;;0.70;;
14883;SDS011;7534;50.762;7.000;2022-10-16T12:40:23;0.98;;;0.80;;
14883;SDS011;7534;50.762;7.000;2022-10-16T12:43:10;1.00;;;0.90;;
14883;SDS011;7534;50.762;7.000;2022-10-16T12:45:48;1.23;;;1.00;;
14883;SDS011;7534;50.762;7.000;2022-10-16T12:48:45;1.00;;;0.90;;
14883;SDS011;7534;50.762;7.000;2022-10-16T12:57:05;1.23;;;0.82;;
14883;SDS011;7534;50.762;7.000;2022-10-16T12:59:43;0.90;;;0.90;;
14883;SDS011;7534;50.762;7.000;2022-10-16T13:23:13;0.80;;;0.80;;
14883;SDS011;7534;50.762;7.000;2022-10-16T13:29:11;1.02;;;0.80;;
14883;SDS011;7534;50.762;7.000;2022-10-16T13:31:40;0.75;;;0.75;;
14883;SDS011;7534;50.762;7.000;2022-10-16T13:34:19;0.80;;;0.80;;
14883;SDS011;7534;50.762;7.000;2022-10-16T13:36:48;1.05;;;0.80;;
14883;SDS011;7534;50.762;7.000;2022-10-16T13:39:26;0.73;;;0.73;;
14883;SDS011;7534;50.762;7.000;2022-10-16T13:44:58;2.85;;;0.70;;
14883;SDS011;7534;50.762;7.000;2022-10-16T13:47:25;1.17;;;0.65;;
14883;SDS011;7534;50.762;7.000;2022-10-16T13:50:04;0.70;;;0.70;;
14883;SDS011;7534;50.762;7.000;2022-10-16T13:52:37;1.67;;;0.95;;
14883;SDS011;7534;50.762;7.000;2022-10-16T13:55:04;0.60;;;0.60;;
14883;SDS011;7534;50.762;7.000;2022-10-16T13:57:38;0.75;;;0.75;;
14883;SDS011;7534;50.762;7.000;2022-10-16T14:03:04;0.80;;;0.80;;
14883;SDS011;7534;50.762;7.000;2022-10-16T14:05:47;0.82;;;0.80;;
14883;SDS011;7534;50.762;7.000;2022-10-16T14:08:21;1.38;;;0.80;;
14883;SDS011;7534;50.762;7.000;2022-10-16T14:10:50;1.02;;;0.82;;
14883;SDS011;7534;50.762;7.000;2022-10-16T14:13:22;1.27;;;0.80;;
14883;SDS011;7534;50.762;7.000;2022-10-16T14:16:16;1.92;;;0.73;;
14883;SDS011;7534;50.762;7.000;2022-10-16T14:18:55;1.30;;;0.80;;
14883;SDS011;7534;50.762;7.000;2022-10-16T14:21:27;0.88;;;0.88;;
14883;SDS011;7534;50.762;7.000;2022-10-16T14:23:54;0.57;;;0.57;;
14883;SDS011;7534;50.762;7.000;2022-10-16T14:26:22;0.90;;;0.70;;
14883;SDS011;7534;50.762;7.000;2022-10-16T14:29:03;0.60;;;0.60;;
14883;SDS011;7534;50.762;7.000;2022-10-16T14:31:39;0.77;;;0.60;;
14883;SDS011;7534;50.762;7.000;2022-10-16T14:34:22;0.63;;;0.63;;
14883;SDS011;7534;50.762;7.000;2022-10-16T14:37:22;0.60;;;0.60;;
14883;SDS011;7534;50.762;7.000;2022-10-16T14:39:53;1.13;;;0.80;;
14883;SDS011;7534;50.762;7.000;2022-10-16T14:42:22;0.70;;;0.70;;
14883;SDS011;7534;50.762;7.000;2022-10-16T14:44:50;0.93;;;0.90;;
14883;SDS011;7534;50.762;7.000;2022-10-16T14:47:21;0.80;;;0.80;;
14883;SDS011;7534;50.762;7.000;2022-10-16T14:49:51;0.93;;;0.70;;
14883;SDS011;7534;50.762;7.000;2022-10-16T14:52:20;0.82;;;0.80;;
14883;SDS011;7534;50.762;7.000;2022-10-16T14:54:51;0.63;;;0.63;;
14883;SDS011;7534;50.762;7.000;2022-10-16T14:57:20;0.77;;;0.77;;
14883;SDS011;7534;50.762;7.000;2022-10-16T14:59:49;0.73;;;0.73;;
14883;SDS011;7534;50.762;7.000;2022-10-16T15:02:39;1.63;;;0.90;;
14883;SDS011;7534;50.762;7.000;2022-10-16T15:05:15;1.67;;;1.52;;
14883;SDS011;7534;50.762;7.000;2022-10-16T15:07:45;0.80;;;0.80;;
14883;SDS011;7534;50.762;7.000;2022-10-16T15:10:15;1.05;;;0.95;;
14883;SDS011;7534;50.762;7.000;2022-10-16T15:12:43;0.73;;;0.73;;
14883;SDS011;7534;50.762;7.000;2022-10-16T15:15:32;0.95;;;0.80;;
14883;SDS011;7534;50.762;7.000;2022-10-16T15:18:01;1.73;;;0.80;;
14883;SDS011;7534;50.762;7.000;2022-10-16T15:20:28;0.80;;;0.80;;
14883;SDS011;7534;50.762;7.000;2022-10-16T15:23:01;0.90;;;0.90;;
14883;SDS011;7534;50.762;7.000;2022-10-16T15:28:00;1.65;;;0.90;;
14883;SDS011;7534;50.762;7.000;2022-10-16T15:30:28;0.70;;;0.70;;
14883;SDS011;7534;50.762;7.000;2022-10-16T15:32:54;0.80;;;0.80;;
14883;SDS011;7534;50.762;7.000;2022-10-16T15:35:21;1.08;;;0.70;;
14883;SDS011;7534;50.762;7.000;2022-10-16T15:37:48;0.98;;;0.65;;
14883;SDS011;7534;50.762;7.000;2022-10-16T15:40:15;0.70;;;0.70;;
14883;SDS011;7534;50.762;7.000;2022-10-16T15:42:43;0.70;;;0.70;;
14883;SDS011;7534;50.762;7.000;2022-10-16T15:45:09;0.85;;;0.70;;
14883;SDS011;7534;50.762;7.000;2022-10-16T15:47:36;0.90;;;0.80;;
14883;SDS011;7534;50.762;7.000;2022-10-16T15:50:04;0.68;;;0.68;;
14883;SDS011;7534;50.762;7.000;2022-10-16T15:52:31;0.73;;;0.73;;
14883;SDS011;7534;50.762;7.000;2022-10-16T15:54:57;0.93;;;0.93;;
14883;SDS011;7534;50.762;7.000;2022-10-16T15:57:23;0.77;;;0.77;;
14883;SDS011;7534;50.762;7.000;2022-10-16T15:59:50;1.10;;;0.82;;
14883;SDS011;7534;50.762;7.000;2022-10-16T16:02:16;0.93;;;0.93;;
14883;SDS011;7534;50.762;7.000;2022-10-16T16:04:41;1.10;;;0.98;;
14883;SDS011;7534;50.762;7.000;2022-10-16T16:07:07;1.02;;;0.93;;
14883;SDS011;7534;50.762;7.000;2022-10-16T16:09:34;1.67;;;1.00;;
14883;SDS011;7534;50.762;7.000;2022-10-16T16:11:59;1.75;;;1.10;;
14883;SDS011;7534;50.762;7.000;2022-10-16T16:14:26;1.30;;;1.20;;
14883;SDS011;7534;50.762;7.000;2022-10-16T16:16:53;1.23;;;1.00;;
14883;SDS011;7534;50.762;7.000;2022-10-16T16:19:20;4.03;;;1.20;;
14883;SDS011;7534;50.762;7.000;2022-10-16T16:21:46;1.20;;;1.10;;
14883;SDS011;7534;50.762;7.000;2022-10-16T16:24:12;1.02;;;1.02;;
14883;SDS011;7534;50.762;7.000;2022-10-16T16:26:38;1.48;;;1.27;;
14883;SDS011;7534;50.762;7.000;2022-10-16T16:29:08;2.22;;;1.30;;
14883;SDS011;7534;50.762;7.000;2022-10-16T16:31:40;1.52;;;1.42;;
14883;SDS011;7534;50.762;7.000;2022-10-16T16:34:06;1.98;;;1.80;;
14883;SDS011;7534;50.762;7.000;2022-10-16T16:36:35;2.17;;;1.98;;
14883;SDS011;7534;50.762;7.000;2022-10-16T16:39:01;1.75;;;1.65;;
14883;SDS011;7534;50.762;7.000;2022-10-16T16:41:28;1.85;;;1.70;;
14883;SDS011;7534;50.762;7.000;2022-10-16T16:43:55;1.65;;;1.55;;
14883;SDS011;7534;50.762;7.000;2022-10-16T16:46:29;1.90;;;1.80;;
14883;SDS011;7534;50.762;7.000;2022-10-16T16:48:57;2.17;;;1.98;;
14883;SDS011;7534;50.762;7.000;2022-10-16T16:51:24;2.85;;;2.50;;
14883;SDS011;7534;50.762;7.000;2022-10-16T16:53:50;3.15;;;2.10;;
14883;SDS011;7534;50.762;7.000;2022-10-16T16:56:18;2.30;;;2.10;;
14883;SDS011;7534;50.762;7.000;2022-10-16T16:58:46;2.55;;;2.15;;
14883;SDS011;7534;50.762;7.000;2022-10-16T17:01:13;3.17;;;2.55;;
14883;SDS011;7534;50.762;7.000;2022-10-16T17:03:41;4.72;;;2.72;;
14883;SDS011;7534;50.762;7.000;2022-10-16T17:06:12;4.72;;;2.70;;
14883;SDS011;7534;50.762;7.000;2022-10-16T17:08:39;2.92;;;2.60;;
14883;SDS011;7534;50.762;7.000;2022-10-16T17:11:06;2.85;;;2.65;;
14883;SDS011;7534;50.762;7.000;2022-10-16T17:13:41;3.30;;;2.22;;
14883;SDS011;7534;50.762;7.000;2022-10-16T17:16:07;2.28;;;2.00;;
14883;SDS011;7534;50.762;7.000;2022-10-16T17:18:34;4.30;;;2.33;;
14883;SDS011;7534;50.762;7.000;2022-10-16T17:21:02;2.85;;;2.10;;
14883;SDS011;7534;50.762;7.000;2022-10-16T17:23:31;2.85;;;1.90;;
14883;SDS011;7534;50.762;7.000;2022-10-16T17:26:11;2.65;;;2.10;;
14883;SDS011;7534;50.762;7.000;2022-10-16T17:28:41;2.70;;;2.17;;
14883;SDS011;7534;50.762;7.000;2022-10-16T17:33:43;2.78;;;2.00;;
14883;SDS011;7534;50.762;7.000;2022-10-16T17:36:09;4.78;;;2.50;;
14883;SDS011;7534;50.762;7.000;2022-10-16T17:38:35;2.50;;;2.30;;
14883;SDS011;7534;50.762;7.000;2022-10-16T17:41:15;3.72;;;2.95;;
14883;SDS011;7534;50.762;7.000;2022-10-16T17:43:47;3.28;;;2.17;;
14883;SDS011;7534;50.762;7.000;2022-10-16T17:46:14;3.08;;;2.30;;
14883;SDS011;7534;50.762;7.000;2022-10-16T17:48:44;2.15;;;2.03;;